Hattieville, Arkansas
Current Conditions -  °F | °C
As of 6:53 AM on Thursday 27 Nov 2014 (Local Time) from KRUE Reporting Station
Clear Clear  
Wind Chill: 29°   Ceiling: Unl
Heat Index: 29°   Visibility: 10mi
Dew Point: 24°   Wind: 0mph
Humidity: 82%   Direction: NA
Pressure: 30.48"   Gusts: NA
Location:  35.29°N, 92.79°W
Report Text: KRUE 271253Z AUTO 00000KT 10SM CLR M02/M04 A3048 RMK AO2 SLP319 T10171044
Loading
Personal Weather Stations






























Interactive Weather Map New forecast layout! Learn more

10-Day Weather Forecast

Advertisements
Track Severe Weather on mobile